createdAt,value
2018-04-02T00:01:28.439Z,52.13
2018-04-02T00:03:56.090Z,50.07
2018-04-02T00:06:23.698Z,51.03
2018-04-02T00:08:51.396Z,50.70
2018-04-02T00:11:18.951Z,46.97
2018-04-02T00:13:46.609Z,51.83
2018-04-02T00:16:14.199Z,49.63
2018-04-02T00:18:41.969Z,54.30
2018-04-02T00:21:09.571Z,49.23
2018-04-02T00:23:37.298Z,54.43
2018-04-02T00:26:04.920Z,53.03
2018-04-02T00:28:32.633Z,51.80
2018-04-02T00:31:00.271Z,52.33
2018-04-02T00:33:27.987Z,52.47
2018-04-02T00:35:55.566Z,56.93
2018-04-02T00:38:23.203Z,55.90
2018-04-02T00:40:50.791Z,54.97
2018-04-02T00:43:18.521Z,51.73
2018-04-02T00:45:46.122Z,52.10
2018-04-02T00:48:13.718Z,55.83
2018-04-02T00:50:41.364Z,56.37
2018-04-02T00:53:09.000Z,53.83
2018-04-02T00:55:36.631Z,51.80
2018-04-02T00:58:04.243Z,53.40
2018-04-02T01:00:31.883Z,53.30
2018-04-02T01:02:59.488Z,53.40
2018-04-02T01:05:27.134Z,52.43
2018-04-02T01:07:54.740Z,50.43
2018-04-02T01:10:22.433Z,51.57
2018-04-02T01:12:50.067Z,51.27
2018-04-02T01:15:17.694Z,52.87
2018-04-02T01:17:45.306Z,50.63
2018-04-02T01:20:12.928Z,50.23
2018-04-02T01:22:40.531Z,52.30
2018-04-02T01:25:08.182Z,50.27
2018-04-02T01:27:35.765Z,49.20
2018-04-02T01:30:03.414Z,52.27
2018-04-02T01:32:31.001Z,51.10
2018-04-02T01:34:58.667Z,49.53
2018-04-02T01:37:26.311Z,49.97
2018-04-02T01:39:53.962Z,49.23
2018-04-02T01:42:21.593Z,49.90
2018-04-02T01:44:49.190Z,50.50
2018-04-02T01:47:16.809Z,49.43
2018-04-02T01:49:44.543Z,50.33
2018-04-02T01:52:12.174Z,48.97
2018-04-02T01:54:39.787Z,49.97
2018-04-02T01:57:07.423Z,51.50
2018-04-02T01:59:35.046Z,50.30
2018-04-02T02:02:02.725Z,49.47
2018-04-02T02:04:30.322Z,49.73
2018-04-02T02:06:57.941Z,50.20
2018-04-02T02:09:25.551Z,51.10
2018-04-02T02:11:53.182Z,48.93
2018-04-02T02:14:20.795Z,47.50
2018-04-02T02:16:48.480Z,47.80
2018-04-02T02:19:16.082Z,51.30
2018-04-02T02:21:43.727Z,48.97
2018-04-02T02:24:11.314Z,54.40
2018-04-02T02:26:38.906Z,49.03
2018-04-02T02:29:06.534Z,47.67
2018-04-02T02:31:34.228Z,47.23
2018-04-02T02:34:01.864Z,49.13
2018-04-02T02:36:29.491Z,49.57
2018-04-02T02:38:57.118Z,45.43
2018-04-02T02:41:24.722Z,47.87
2018-04-02T02:43:52.398Z,49.63
2018-04-02T02:46:19.990Z,53.10
2018-04-02T02:48:47.619Z,55.53
2018-04-02T02:51:15.210Z,53.50
2018-04-02T02:53:42.859Z,58.67
2018-04-02T02:56:10.437Z,57.30
2018-04-02T02:58:38.068Z,57.93
2018-04-02T03:01:05.685Z,58.23
2018-04-02T03:03:33.372Z,59.43
2018-04-02T03:06:00.973Z,57.87
2018-04-02T03:08:28.611Z,58.47
2018-04-02T03:10:56.272Z,57.67
2018-04-02T03:13:23.918Z,58.40
2018-04-02T03:15:51.515Z,59.63
2018-04-02T03:18:19.113Z,60.33
2018-04-02T03:20:46.754Z,57.27
2018-04-02T03:23:14.358Z,62.30
2018-04-02T03:25:41.991Z,61.27
2018-04-02T03:28:09.596Z,60.10
2018-04-02T03:30:37.243Z,61.53
2018-04-02T03:33:04.846Z,59.57
2018-04-02T03:35:32.508Z,61.67
2018-04-02T03:38:00.127Z,59.73
2018-04-02T03:40:27.767Z,59.97
2018-04-02T03:42:55.370Z,61.47
2018-04-02T03:45:23.044Z,62.33
2018-04-02T03:47:50.634Z,59.27
2018-04-02T03:50:18.281Z,59.23
2018-04-02T03:52:45.900Z,56.77
2018-04-02T03:55:13.532Z,57.97
2018-04-02T03:57:41.123Z,56.63
2018-04-02T04:00:08.762Z,58.63
2018-04-02T04:02:36.363Z,56.27
2018-04-02T04:05:04.029Z,60.43
2018-04-02T04:07:31.681Z,57.43
2018-04-02T04:09:59.314Z,58.93
2018-04-02T04:12:26.955Z,59.43
2018-04-02T04:14:54.573Z,56.93
2018-04-02T04:17:22.320Z,57.53
2018-04-02T04:19:49.927Z,59.50
2018-04-02T04:22:17.572Z,59.67
2018-04-02T04:24:45.168Z,59.67
2018-04-02T04:27:12.790Z,53.70
2018-04-02T04:29:40.394Z,54.03
2018-04-02T04:32:08.050Z,57.70
2018-04-02T04:34:35.638Z,56.77
2018-04-02T04:37:03.304Z,51.47
2018-04-02T04:39:30.903Z,53.27
2018-04-02T04:41:58.562Z,52.70
2018-04-02T04:44:26.218Z,52.30
2018-04-02T04:46:53.858Z,52.40
2018-04-02T04:49:21.471Z,50.07
2018-04-02T04:51:49.120Z,48.60
2018-04-02T04:54:16.715Z,48.00
2018-04-02T04:56:44.431Z,48.47
2018-04-02T04:59:12.063Z,47.40
2018-04-02T05:01:39.691Z,48.67
2018-04-02T05:04:07.344Z,47.67
2018-04-02T05:06:34.941Z,44.37
2018-04-02T05:09:02.595Z,45.97
2018-04-02T05:11:30.198Z,44.63
2018-04-02T05:13:57.835Z,42.93
2018-04-02T05:16:25.439Z,43.43
2018-04-02T05:18:53.066Z,46.20
2018-04-02T05:21:20.667Z,46.63
2018-04-02T05:23:48.397Z,42.87
2018-04-02T05:26:16.019Z,41.20
2018-04-02T05:28:43.658Z,43.83
2018-04-02T05:31:11.272Z,40.80
2018-04-02T05:33:38.899Z,41.50
2018-04-02T05:36:06.487Z,42.23
2018-04-02T05:38:34.134Z,41.03
2018-04-02T05:41:02.218Z,41.83
2018-04-02T05:43:29.906Z,39.53
2018-04-02T05:45:57.495Z,39.87
2018-04-02T05:48:25.094Z,38.00
2018-04-02T05:50:52.962Z,38.37
2018-04-02T05:53:20.607Z,40.50
2018-04-02T05:55:48.227Z,37.80
2018-04-02T05:58:15.860Z,37.57
2018-04-02T06:00:43.502Z,38.90
2018-04-02T06:03:11.095Z,37.77
2018-04-02T06:05:38.746Z,39.20
2018-04-02T06:08:06.353Z,38.40
2018-04-02T06:10:34.016Z,36.60
2018-04-02T06:13:01.580Z,36.97
2018-04-02T06:15:29.218Z,37.17
2018-04-02T06:17:56.833Z,39.03
2018-04-02T06:20:24.529Z,37.60
2018-04-02T06:22:52.188Z,38.63
2018-04-02T06:25:19.882Z,36.63
2018-04-02T06:27:47.490Z,37.50
2018-04-02T06:30:15.210Z,40.37
2018-04-02T06:32:42.823Z,39.97
2018-04-02T06:35:10.479Z,33.70
2018-04-02T06:37:38.171Z,36.80
2018-04-02T06:40:05.758Z,38.03
2018-04-02T06:42:33.395Z,36.20
2018-04-02T06:45:00.983Z,36.37
2018-04-02T06:47:28.779Z,35.60
2018-04-02T06:49:56.472Z,36.43
2018-04-02T06:52:24.114Z,37.30
2018-04-02T06:54:51.710Z,34.20
2018-04-02T06:57:19.334Z,34.40
2018-04-02T06:59:46.937Z,34.60
2018-04-02T07:02:14.714Z,34.00
2018-04-02T07:04:42.331Z,35.00
2018-04-02T07:07:09.962Z,31.73
2018-04-02T07:09:37.579Z,32.37
2018-04-02T07:12:05.278Z,31.90
2018-04-02T07:14:32.900Z,31.47
2018-04-02T07:17:00.527Z,30.97
2018-04-02T07:19:28.117Z,30.00
2018-04-02T07:21:55.766Z,30.63
2018-04-02T07:24:23.552Z,28.90
2018-04-02T07:26:51.140Z,29.90
2018-04-02T07:29:18.777Z,28.57
2018-04-02T07:31:46.377Z,26.77
2018-04-02T07:34:14.016Z,26.77
2018-04-02T07:36:41.627Z,27.90
2018-04-02T07:39:09.273Z,28.77
2018-04-02T07:41:36.869Z,27.67
2018-04-02T07:44:04.497Z,27.50
2018-04-02T07:46:32.117Z,26.13
2018-04-02T07:48:59.849Z,28.30
2018-04-02T07:51:27.556Z,27.17
2018-04-02T07:53:55.226Z,26.10
2018-04-02T07:56:22.833Z,26.70
2018-04-02T07:58:50.469Z,51.40
2018-04-02T08:01:18.184Z,26.93
2018-04-02T08:03:45.855Z,24.57
2018-04-02T08:06:13.489Z,24.30
2018-04-02T08:08:41.204Z,22.83
2018-04-02T08:11:08.752Z,25.37
2018-04-02T08:13:36.444Z,22.90
2018-04-02T08:16:04.074Z,22.80
2018-04-02T08:18:31.680Z,23.30
2018-04-02T08:20:59.315Z,22.57
2018-04-02T08:23:26.903Z,22.77
2018-04-02T08:25:54.576Z,24.03
2018-04-02T08:28:22.207Z,23.93
2018-04-02T08:30:49.815Z,20.90
2018-04-02T08:33:17.410Z,22.43
2018-04-02T08:35:45.063Z,21.53
2018-04-02T08:38:12.716Z,20.50
2018-04-02T08:40:40.498Z,22.40
2018-04-02T08:43:08.175Z,21.87
2018-04-02T08:45:35.776Z,22.10
2018-04-02T08:48:03.411Z,22.87
2018-04-02T08:50:31.004Z,26.40
2018-04-02T08:52:58.668Z,20.93
2018-04-02T08:55:26.265Z,18.50
2018-04-02T08:57:53.930Z,18.53
2018-04-02T09:00:21.514Z,21.83
2018-04-02T09:02:49.233Z,19.30
2018-04-02T09:05:16.876Z,18.73
2018-04-02T09:07:44.505Z,17.77
2018-04-02T09:10:12.114Z,18.10
2018-04-02T09:12:39.759Z,16.73
2018-04-02T09:15:07.358Z,17.00
2018-04-02T09:17:34.999Z,16.67
2018-04-02T09:20:02.594Z,14.40
2018-04-02T09:22:30.222Z,15.20
2018-04-02T09:24:57.850Z,17.40
2018-04-02T09:27:25.666Z,15.30
2018-04-02T09:29:53.293Z,15.07
2018-04-02T09:32:20.897Z,20.83
2018-04-02T09:34:48.569Z,12.87
2018-04-02T09:37:16.255Z,16.60
2018-04-02T09:39:43.902Z,12.37
2018-04-02T09:42:11.523Z,12.80
2018-04-02T09:44:39.169Z,14.30
2018-04-02T09:47:06.781Z,10.70
2018-04-02T09:49:34.430Z,12.27
2018-04-02T09:52:02.059Z,14.47
2018-04-02T09:54:29.695Z,12.20
2018-04-02T09:56:57.316Z,12.67
2018-04-02T09:59:25.122Z,11.83
2018-04-02T10:01:55.314Z,11.90
2018-04-02T10:04:28.346Z,11.43
2018-04-02T10:06:55.992Z,14.20
2018-04-02T10:09:23.659Z,13.83
2018-04-02T10:11:51.269Z,12.00
2018-04-02T10:14:18.934Z,12.77
2018-04-02T10:16:46.570Z,11.20
2018-04-02T10:19:14.238Z,14.33
2018-04-02T10:21:41.862Z,9.40
2018-04-02T10:24:09.554Z,9.47
2018-04-02T10:26:37.179Z,8.50
2018-04-02T10:29:04.791Z,9.07
2018-04-02T10:31:32.505Z,8.70
2018-04-02T10:34:00.122Z,7.10
2018-04-02T10:36:27.767Z,7.50
2018-04-02T10:38:55.365Z,7.93
2018-04-02T10:41:23.020Z,9.23
2018-04-02T10:43:50.689Z,8.23
2018-04-02T10:46:18.398Z,6.60
2018-04-02T10:48:46.042Z,7.30
2018-04-02T10:51:13.672Z,6.93
2018-04-02T10:53:41.293Z,8.60
2018-04-02T10:56:08.967Z,9.00
2018-04-02T10:58:36.691Z,9.63
2018-04-02T11:01:04.385Z,14.77
2018-04-02T11:03:31.996Z,13.67
2018-04-02T11:05:59.612Z,17.97
2018-04-02T11:08:27.262Z,14.47
2018-04-02T11:10:54.892Z,13.93
2018-04-02T11:13:22.554Z,7.30
2018-04-02T11:15:50.170Z,9.50
2018-04-02T11:18:17.818Z,7.70
2018-04-02T11:20:45.477Z,8.30
2018-04-02T11:23:13.147Z,11.73
2018-04-02T11:25:40.794Z,7.50
2018-04-02T11:28:08.458Z,8.57
2018-04-02T11:30:36.098Z,11.80
2018-04-02T11:33:03.990Z,11.53
2018-04-02T11:35:31.608Z,13.17
2018-04-02T11:37:59.287Z,10.20
2018-04-02T11:40:26.930Z,8.93
2018-04-02T11:42:54.637Z,8.40
2018-04-02T11:45:22.198Z,6.20
2018-04-02T11:47:49.876Z,5.87
2018-04-02T11:50:17.438Z,7.07
2018-04-02T11:52:45.111Z,7.73
2018-04-02T11:55:12.769Z,6.80
2018-04-02T11:57:40.381Z,7.80
2018-04-02T12:00:08.050Z,7.47
2018-04-02T12:02:35.652Z,6.67
2018-04-02T12:05:03.396Z,6.10
2018-04-02T12:07:31.005Z,5.63
2018-04-02T12:09:58.637Z,6.57
2018-04-02T12:12:26.273Z,6.83
2018-04-02T12:14:53.933Z,6.33
2018-04-02T12:17:21.542Z,5.60
2018-04-02T12:19:49.196Z,5.90
2018-04-02T12:22:16.826Z,5.23
2018-04-02T12:24:44.455Z,6.37
2018-04-02T12:27:12.068Z,6.60
2018-04-02T12:29:39.694Z,6.70
2018-04-02T12:32:07.310Z,6.37
2018-04-02T12:34:34.967Z,5.83
2018-04-02T12:37:02.585Z,6.13
2018-04-02T12:39:30.375Z,5.43
2018-04-02T12:41:57.968Z,6.00
2018-04-02T12:44:25.592Z,5.33
2018-04-02T12:46:53.257Z,5.87
2018-04-02T12:49:20.899Z,6.60
2018-04-02T12:51:48.534Z,6.00
2018-04-02T12:54:16.155Z,4.57
2018-04-02T12:56:43.875Z,4.57
2018-04-02T12:59:11.612Z,5.63
2018-04-02T13:01:39.200Z,6.00
2018-04-02T13:04:06.842Z,6.90
2018-04-02T13:06:34.469Z,6.77
2018-04-02T13:09:02.082Z,5.10
2018-04-02T13:11:29.748Z,7.67
2018-04-02T13:13:57.518Z,9.10
2018-04-02T13:16:25.164Z,5.90
2018-04-02T13:18:52.770Z,7.23
2018-04-02T13:21:20.498Z,5.27
2018-04-02T13:23:48.144Z,5.77
2018-04-02T13:26:15.848Z,8.20
2018-04-02T13:28:43.455Z,6.13
2018-04-02T13:31:11.110Z,4.67
2018-04-02T13:33:38.708Z,3.50
2018-04-02T13:36:06.515Z,4.50
2018-04-02T13:38:34.114Z,8.70
2018-04-02T13:41:01.806Z,4.00
2018-04-02T13:43:29.366Z,3.60
2018-04-02T13:45:57.010Z,3.37
2018-04-02T13:48:24.706Z,2.70
2018-04-02T13:50:52.393Z,3.10
2018-04-02T13:53:20.133Z,3.40
2018-04-02T13:55:47.794Z,2.63
2018-04-02T13:58:15.435Z,3.20
2018-04-02T14:00:43.030Z,3.93
2018-04-02T14:03:10.642Z,2.80
2018-04-02T14:05:38.239Z,3.30
2018-04-02T14:08:05.874Z,2.70
2018-04-02T14:10:33.460Z,2.37
2018-04-02T14:13:01.090Z,2.90
2018-04-02T14:15:28.704Z,2.53
2018-04-02T14:17:56.347Z,3.17
2018-04-02T14:20:24.003Z,2.10
2018-04-02T14:22:51.636Z,2.10
2018-04-02T14:25:19.251Z,2.60
2018-04-02T14:27:46.955Z,2.10
2018-04-02T14:30:14.579Z,2.50
2018-04-02T14:32:42.202Z,2.70
2018-04-02T14:35:09.819Z,3.83
2018-04-02T14:37:37.486Z,4.77
2018-04-02T14:40:05.074Z,2.73
2018-04-02T14:42:32.669Z,2.27
2018-04-02T14:45:00.301Z,2.87
2018-04-02T14:47:27.885Z,2.30
2018-04-02T14:49:55.554Z,2.60
2018-04-02T14:52:23.161Z,2.50
2018-04-02T14:54:50.877Z,2.30
2018-04-02T14:57:18.487Z,2.77
2018-04-02T14:59:46.124Z,2.30
2018-04-02T15:02:13.726Z,2.00
2018-04-02T15:04:41.358Z,2.33
2018-04-02T15:07:08.974Z,1.60
2018-04-02T15:09:36.624Z,2.17
2018-04-02T15:12:04.226Z,1.43
2018-04-02T15:14:31.864Z,2.07
2018-04-02T15:16:59.536Z,1.70
2018-04-02T15:19:27.214Z,2.53
2018-04-02T15:21:54.821Z,1.93
2018-04-02T15:24:22.451Z,1.43
2018-04-02T15:26:50.143Z,1.30
2018-04-02T15:29:17.844Z,1.53
2018-04-02T15:31:45.388Z,1.80
2018-04-02T15:34:13.083Z,2.20
2018-04-02T15:36:40.702Z,1.70
2018-04-02T15:39:08.367Z,2.57
2018-04-02T15:41:35.995Z,2.60
2018-04-02T15:44:03.605Z,1.53
2018-04-02T15:46:31.228Z,1.83
2018-04-02T15:49:00.638Z,1.33
2018-04-02T15:51:28.242Z,1.73
2018-04-02T15:53:55.846Z,1.40
2018-04-02T15:56:23.526Z,1.70
2018-04-02T15:58:51.098Z,2.57
2018-04-02T16:01:18.851Z,1.70
2018-04-02T16:03:46.458Z,1.47
2018-04-02T16:06:14.112Z,1.80
2018-04-02T16:08:41.816Z,2.00
2018-04-02T16:11:09.479Z,3.20
2018-04-02T16:13:37.121Z,2.20
2018-04-02T16:16:04.727Z,2.40
2018-04-02T16:18:32.332Z,1.93
2018-04-02T16:20:59.928Z,2.90
2018-04-02T16:23:27.550Z,2.33
2018-04-02T16:25:55.148Z,2.00
2018-04-02T16:28:22.855Z,2.50
2018-04-02T16:30:50.476Z,2.27
2018-04-02T16:33:18.176Z,2.37
2018-04-02T16:35:45.795Z,2.60
2018-04-02T16:38:13.427Z,2.17
2018-04-02T16:40:41.043Z,3.40
2018-04-02T16:43:08.677Z,2.17
2018-04-02T16:45:36.288Z,2.20
2018-04-02T16:48:03.934Z,2.73
2018-04-02T16:50:31.541Z,2.60
2018-04-02T16:52:59.218Z,3.67
2018-04-02T16:55:26.831Z,3.20
2018-04-02T16:57:54.514Z,2.50
2018-04-02T17:00:22.158Z,2.57
2018-04-02T17:02:49.790Z,2.23
2018-04-02T17:05:17.432Z,1.97
2018-04-02T17:07:45.025Z,2.07
2018-04-02T17:10:12.699Z,2.10
2018-04-02T17:12:40.311Z,2.00
2018-04-02T17:15:07.983Z,2.03
2018-04-02T17:17:35.633Z,1.80
2018-04-02T17:20:03.277Z,2.20
2018-04-02T17:22:30.900Z,2.23
2018-04-02T17:24:58.639Z,1.97
2018-04-02T17:27:26.239Z,2.23
2018-04-02T17:29:53.881Z,4.60
2018-04-02T17:32:21.558Z,2.40
2018-04-02T17:34:49.212Z,3.30
2018-04-02T17:37:16.848Z,2.53
2018-04-02T17:39:44.514Z,3.47
2018-04-02T17:42:12.125Z,2.73
2018-04-02T17:44:39.710Z,3.03
2018-04-02T17:47:07.372Z,2.97
2018-04-02T17:49:35.063Z,2.80
2018-04-02T17:52:02.686Z,3.10
2018-04-02T17:54:30.297Z,2.77
2018-04-02T17:56:57.946Z,1.90
2018-04-02T17:59:25.567Z,2.50
2018-04-02T18:01:53.243Z,2.57
2018-04-02T18:04:20.986Z,3.67
2018-04-02T18:06:48.617Z,1.73
2018-04-02T18:09:16.257Z,2.00
2018-04-02T18:11:43.926Z,2.93
2018-04-02T18:14:12.255Z,2.80
2018-04-02T18:16:39.893Z,2.33
2018-04-02T18:19:07.575Z,1.80
2018-04-02T18:21:35.254Z,1.90
2018-04-02T18:24:02.879Z,2.20
2018-04-02T18:26:30.495Z,2.40
2018-04-02T18:28:58.182Z,2.10
2018-04-02T18:31:25.983Z,2.03
2018-04-02T18:33:53.574Z,2.20
2018-04-02T18:36:21.196Z,2.90
2018-04-02T18:38:48.850Z,20.20
2018-04-02T18:41:16.455Z,2.90
2018-04-02T18:43:44.099Z,3.13
2018-04-02T18:46:11.720Z,2.83
2018-04-02T18:48:39.427Z,2.93
2018-04-02T18:51:07.063Z,2.70
2018-04-02T18:53:34.703Z,3.00
2018-04-02T18:56:02.318Z,3.00
2018-04-02T18:58:29.946Z,3.07
2018-04-02T19:00:57.554Z,3.00
2018-04-02T19:03:25.320Z,2.80
2018-04-02T19:05:52.927Z,2.83
2018-04-02T19:08:20.620Z,3.43
2018-04-02T19:10:48.226Z,2.83
2018-04-02T19:13:15.825Z,3.70
2018-04-02T19:15:43.571Z,26.47
2018-04-02T19:18:11.173Z,3.60
2018-04-02T19:20:38.846Z,4.00
2018-04-02T19:23:06.465Z,3.30
2018-04-02T19:25:34.093Z,3.40
2018-04-02T19:28:01.849Z,3.10
2018-04-02T19:30:29.491Z,3.67
2018-04-02T19:32:57.147Z,4.30
2018-04-02T19:35:24.805Z,4.10
2018-04-02T19:37:52.431Z,3.33
2018-04-02T19:40:20.080Z,4.50
2018-04-02T19:42:47.720Z,3.90
2018-04-02T19:45:15.362Z,6.90
2018-04-02T19:47:42.994Z,4.90
2018-04-02T19:50:10.646Z,3.80
2018-04-02T19:52:38.313Z,4.90
2018-04-02T19:55:05.962Z,4.30
2018-04-02T19:57:33.571Z,4.10
2018-04-02T20:00:01.278Z,6.40
2018-04-02T20:02:28.909Z,4.53
2018-04-02T20:04:56.587Z,3.70
2018-04-02T20:07:24.240Z,3.87
2018-04-02T20:09:52.002Z,3.70
2018-04-02T20:12:19.660Z,3.30
2018-04-02T20:14:47.303Z,4.20
2018-04-02T20:17:14.979Z,3.40
2018-04-02T20:19:42.576Z,3.40
2018-04-02T20:22:10.245Z,3.70
2018-04-02T20:24:37.878Z,3.77
2018-04-02T20:27:05.527Z,3.47
2018-04-02T20:29:33.138Z,3.70
2018-04-02T20:32:00.764Z,3.47
2018-04-02T20:34:28.419Z,3.10
2018-04-02T20:36:56.057Z,3.70
2018-04-02T20:39:23.734Z,3.67
2018-04-02T20:41:51.355Z,3.07
2018-04-02T20:44:18.959Z,3.40
2018-04-02T20:46:46.836Z,3.07
2018-04-02T20:49:14.436Z,3.53
2018-04-02T20:51:42.086Z,3.43
2018-04-02T20:54:09.743Z,3.23
2018-04-02T20:56:37.314Z,3.63
2018-04-02T20:59:04.944Z,3.13
2018-04-02T21:01:32.536Z,3.00
2018-04-02T21:04:00.204Z,3.20
2018-04-02T21:06:27.806Z,2.93
2018-04-02T21:08:55.510Z,3.33
2018-04-02T21:11:23.127Z,2.63
2018-04-02T21:13:50.762Z,2.37
2018-04-02T21:16:18.362Z,2.60
2018-04-02T21:18:46.007Z,3.37
2018-04-02T21:21:13.669Z,2.60
2018-04-02T21:23:41.290Z,2.50
2018-04-02T21:26:08.927Z,2.70
2018-04-02T21:28:36.574Z,2.77
2018-04-02T21:31:04.307Z,2.30
2018-04-02T21:33:31.950Z,2.40
2018-04-02T21:35:59.536Z,2.57
2018-04-02T21:38:27.196Z,2.70
2018-04-02T21:40:54.830Z,2.70
2018-04-02T21:43:22.598Z,3.00
2018-04-02T21:45:50.302Z,2.60
2018-04-02T21:48:17.918Z,3.03
2018-04-02T21:50:45.553Z,2.47
2018-04-02T21:53:13.169Z,2.27
2018-04-02T21:55:40.804Z,2.50
2018-04-02T21:58:08.584Z,2.47
2018-04-02T22:00:36.214Z,2.60
2018-04-02T22:03:03.912Z,2.30
2018-04-02T22:05:31.633Z,2.50
2018-04-02T22:08:10.058Z,2.50
2018-04-02T22:10:37.708Z,1.70
2018-04-02T22:13:05.347Z,2.70
2018-04-02T22:15:32.959Z,2.20
2018-04-02T22:18:00.559Z,2.97
2018-04-02T22:20:28.205Z,2.20
2018-04-02T22:22:55.842Z,2.80
2018-04-02T22:25:23.473Z,2.40
2018-04-02T22:27:51.096Z,2.73
2018-04-02T22:30:18.825Z,2.60
2018-04-02T22:32:46.410Z,2.97
2018-04-02T22:35:14.077Z,3.90
2018-04-02T22:37:41.662Z,3.80
2018-04-02T22:40:09.299Z,3.67
2018-04-02T22:42:37.175Z,3.17
2018-04-02T22:45:04.822Z,3.40
2018-04-02T22:47:32.426Z,2.60
2018-04-02T22:50:00.074Z,2.50
2018-04-02T22:52:27.701Z,3.23
2018-04-02T22:54:55.378Z,2.83
2018-04-02T22:57:23.012Z,2.40
2018-04-02T22:59:50.603Z,2.30
2018-04-02T23:02:18.237Z,2.47
2018-04-02T23:04:45.847Z,2.43
2018-04-02T23:07:13.557Z,2.23
2018-04-02T23:09:41.203Z,2.03
2018-04-02T23:12:08.858Z,2.93
2018-04-02T23:14:36.502Z,2.80
2018-04-02T23:17:04.139Z,2.40
2018-04-02T23:19:31.735Z,2.63
2018-04-02T23:21:59.375Z,2.73
2018-04-02T23:24:27.028Z,3.13
2018-04-02T23:26:54.644Z,2.97
2018-04-02T23:29:22.228Z,2.40
2018-04-02T23:31:49.878Z,2.67
2018-04-02T23:34:17.454Z,2.63
2018-04-02T23:36:45.069Z,3.07
2018-04-02T23:39:12.892Z,2.70
2018-04-02T23:41:40.482Z,3.07
2018-04-02T23:44:08.131Z,2.73
2018-04-02T23:46:35.711Z,2.50
2018-04-02T23:49:03.385Z,2.60
2018-04-02T23:51:31.019Z,3.97
2018-04-02T23:53:58.685Z,3.50
2018-04-02T23:56:26.274Z,4.83
2018-04-02T23:58:53.958Z,4.00
